Bloomington, California
Current Conditions -  °F | °C
As of 9:53 PM on Tuesday 21 Oct 2014 (Local Time) from KRAL Reporting Station
Clear Clear  
Wind Chill: 66°   Ceiling: Unl
Heat Index: 66°   Visibility: 10mi
Dew Point: 56°   Wind: 0mph
Humidity: 70%   Direction: NA
Pressure: 29.89"   Gusts: NA
Location:  34.07°N, 117.39°W
Report Text: KRAL 220453Z AUTO 00000KT 10SM CLR 19/13 A2989 RMK AO2 SLP108 T01890133
Loading
Personal Weather Stations






























Interactive Weather Map
Tropical Storm Tracking
New forecast layout! Learn more

10-Day Weather Forecast

Advertisements
Track Severe Weather on mobile